Time,TemperatureF,DewpointF,PressureIn,WindDirection,WindDirectionDegrees,WindSpeedMPH,WindSpeedGustMPH,Humidity,HourlyPrecipIn,Conditions,Clouds,dailyrainin,SolarRadiationWatts/m^2,SoftwareType,DateUTC
2013-07-26 00:02:00,71.0,39.0,-100.00,NNW,343,1.0,6.0,31,-99.99,,,0.00,0.000000,,2013-07-26 07:02:00,
2013-07-26 00:12:00,71.0,39.0,-100.00,NNW,343,1.0,6.0,31,-99.99,,,0.00,0.000000,,2013-07-26 07:12:00,
2013-07-26 00:22:00,71.0,39.0,-100.00,NNW,343,1.0,6.0,31,-99.99,,,0.00,0.000000,,2013-07-26 07:22:00,
2013-07-26 00:31:00,69.0,40.0,-100.00,WSW,238,1.0,2.0,35,0.00,,,0.00,0.000000,,2013-07-26 07:31:00,
2013-07-26 01:02:00,69.0,40.0,-100.00,WSW,238,1.0,2.0,35,0.00,,,0.00,0.000000,,2013-07-26 08:02:00,
2013-07-26 01:12:00,69.0,40.0,-100.00,WSW,238,1.0,2.0,35,0.00,,,0.00,0.000000,,2013-07-26 08:12:00,
2013-07-26 01:22:00,69.0,40.0,-100.00,WSW,238,1.0,2.0,35,0.00,,,0.00,0.000000,,2013-07-26 08:22:00,
2013-07-26 01:31:00,69.0,41.0,-100.00,South,176,3.0,5.0,36,-99.99,,,-99.99,0.000000,,2013-07-26 08:31:00,
2013-07-26 01:52:00,69.0,41.0,-100.00,South,176,3.0,5.0,36,-99.99,,,-99.99,0.000000,,2013-07-26 08:52:00,
2013-07-26 02:31:00,68.0,37.0,-100.00,SSW,206,2.0,10.0,32,0.00,,,0.00,0.000000,,2013-07-26 09:31:00,
2013-07-26 03:02:00,68.0,37.0,-100.00,SSW,206,2.0,10.0,32,0.00,,,0.00,0.000000,,2013-07-26 10:02:00,
2013-07-26 03:12:00,68.0,37.0,-100.00,SSW,206,2.0,10.0,32,0.00,,,0.00,0.000000,,2013-07-26 10:12:00,
2013-07-26 03:31:00,68.0,36.0,-100.00,South,189,3.0,6.0,31,-99.99,,,0.00,0.000000,,2013-07-26 10:31:00,
2013-07-26 04:02:00,68.0,36.0,-100.00,South,189,3.0,6.0,31,-99.99,,,0.00,0.000000,,2013-07-26 11:02:00,
2013-07-26 04:31:00,66.0,35.0,-100.00,SSW,201,3.0,6.0,32,0.00,,,0.00,0.000000,,2013-07-26 11:31:00,
2013-07-26 04:52:00,66.0,35.0,-100.00,SSW,201,3.0,6.0,32,0.00,,,0.00,0.000000,,2013-07-26 11:52:00,
2013-07-26 05:31:00,66.0,34.0,-100.00,South,188,4.0,5.0,30,0.00,,,0.00,0.000000,,2013-07-26 12:31:00,
2013-07-26 05:53:00,66.0,34.0,-100.00,South,188,4.0,5.0,30,0.00,,,0.00,0.000000,,2013-07-26 12:53:00,
2013-07-26 08:31:00,74.0,40.0,-100.00,ESE,111,2.0,8.0,29,-99.99,,,0.00,335.000000,,2013-07-26 15:31:00,
2013-07-26 09:14:00,74.0,40.0,-100.00,ESE,111,2.0,8.0,29,-99.99,,,0.00,335.000000,,2013-07-26 16:14:00,
2013-07-26 09:22:00,74.0,40.0,-100.00,ESE,111,2.0,8.0,29,-99.99,,,0.00,335.000000,,2013-07-26 16:22:00,
2013-07-26 11:02:00,82.0,41.0,-100.00,East,85,2.0,6.0,23,0.00,,,0.00,589.000000,,2013-07-26 18:02:00,
2013-07-26 11:12:00,82.0,41.0,-100.00,East,85,2.0,6.0,23,0.00,,,0.00,589.000000,,2013-07-26 18:12:00,
2013-07-26 11:22:00,82.0,41.0,-100.00,East,85,2.0,6.0,23,0.00,,,0.00,589.000000,,2013-07-26 18:22:00,
2013-07-26 11:31:00,87.0,34.0,-100.00,ESE,111,4.0,6.0,15,0.00,,,0.00,666.000000,,2013-07-26 18:31:00,
2013-07-26 12:02:00,87.0,34.0,-100.00,ESE,111,4.0,6.0,15,0.00,,,0.00,666.000000,,2013-07-26 19:02:00,
2013-07-26 12:12:00,87.0,34.0,-100.00,ESE,111,4.0,6.0,15,0.00,,,0.00,666.000000,,2013-07-26 19:12:00,
2013-07-26 12:22:00,87.0,34.0,-100.00,ESE,111,4.0,6.0,15,0.00,,,0.00,666.000000,,2013-07-26 19:22:00,
2013-07-26 12:31:00,89.0,28.0,-100.00,SW,233,4.0,9.0,11,0.00,,,0.00,695.000000,,2013-07-26 19:31:00,
2013-07-26 13:02:00,89.0,28.0,-100.00,SW,233,4.0,9.0,11,0.00,,,0.00,695.000000,,2013-07-26 20:02:00,
2013-07-26 13:12:00,89.0,28.0,-100.00,SW,233,4.0,9.0,11,0.00,,,0.00,695.000000,,2013-07-26 20:12:00,
2013-07-26 13:22:00,89.0,28.0,-100.00,SW,233,4.0,9.0,11,0.00,,,0.00,695.000000,,2013-07-26 20:22:00,
2013-07-26 14:31:00,93.0,26.0,-100.00,West,270,4.0,11.0,9,0.00,,,0.00,826.000000,,2013-07-26 21:31:00,
2013-07-26 15:31:00,96.0,28.0,-100.00,SW,230,6.0,14.0,9,0.00,,,0.00,962.000000,,2013-07-26 22:31:00,
2013-07-26 15:53:00,96.0,28.0,-100.00,SW,230,6.0,14.0,9,0.00,,,0.00,962.000000,,2013-07-26 22:53:00,
2013-07-26 16:02:00,96.0,28.0,-100.00,SW,230,6.0,14.0,9,0.00,,,0.00,962.000000,,2013-07-26 23:02:00,
2013-07-26 16:12:00,96.0,28.0,-100.00,SW,230,6.0,14.0,9,0.00,,,0.00,962.000000,,2013-07-26 23:12:00,
2013-07-26 16:22:00,96.0,28.0,-100.00,SW,230,6.0,14.0,9,0.00,,,0.00,962.000000,,2013-07-26 23:22:00,
2013-07-26 16:31:00,91.0,29.0,-100.00,West,264,4.0,13.0,11,0.00,,,-99.99,508.000000,,2013-07-26 23:31:00,
2013-07-26 17:02:00,91.0,29.0,-100.00,West,264,4.0,13.0,11,0.00,,,-99.99,508.000000,,2013-07-27 00:02:00,
2013-07-26 17:12:00,91.0,29.0,-100.00,West,264,4.0,13.0,11,0.00,,,-99.99,508.000000,,2013-07-27 00:12:00,
2013-07-26 17:22:00,91.0,29.0,-100.00,West,264,4.0,13.0,11,0.00,,,-99.99,508.000000,,2013-07-27 00:22:00,
2013-07-26 17:31:00,86.0,36.0,-100.00,SE,125,3.0,9.0,17,0.00,,,0.00,172.000000,,2013-07-27 00:31:00,
2013-07-26 18:02:00,86.0,36.0,-100.00,SE,125,3.0,9.0,17,0.00,,,0.00,172.000000,,2013-07-27 01:02:00,
2013-07-26 18:12:00,86.0,36.0,-100.00,SE,125,3.0,9.0,17,0.00,,,0.00,172.000000,,2013-07-27 01:12:00,
2013-07-26 18:22:00,86.0,36.0,-100.00,SE,125,3.0,9.0,17,0.00,,,0.00,172.000000,,2013-07-27 01:22:00,
2013-07-26 18:31:00,89.0,38.0,-100.00,NW,323,3.0,8.0,17,0.00,,,0.00,385.000000,,2013-07-27 01:31:00,
2013-07-26 19:02:00,89.0,38.0,-100.00,NW,323,3.0,8.0,17,0.00,,,0.00,385.000000,,2013-07-27 02:02:00,
2013-07-26 19:12:00,89.0,38.0,-100.00,NW,323,3.0,8.0,17,0.00,,,0.00,385.000000,,2013-07-27 02:12:00,
2013-07-26 19:22:00,89.0,38.0,-100.00,NW,323,3.0,8.0,17,0.00,,,0.00,385.000000,,2013-07-27 02:22:00,
2013-07-26 19:31:00,83.0,32.0,-100.00,WSW,244,4.0,11.0,16,-99.99,,,0.00,176.000000,,2013-07-27 02:31:00,
2013-07-26 20:02:00,83.0,32.0,-100.00,WSW,244,4.0,11.0,16,-99.99,,,0.00,176.000000,,2013-07-27 03:02:00,
2013-07-26 20:12:00,83.0,32.0,-100.00,WSW,244,4.0,11.0,16,-99.99,,,0.00,176.000000,,2013-07-27 03:12:00,
2013-07-26 20:22:00,83.0,32.0,-100.00,WSW,244,4.0,11.0,16,-99.99,,,0.00,176.000000,,2013-07-27 03:22:00,
2013-07-26 20:31:00,77.0,30.0,-100.00,ENE,58,1.0,5.0,18,0.00,,,0.00,20.000000,,2013-07-27 03:31:00,
2013-07-26 21:02:00,77.0,30.0,-100.00,ENE,58,1.0,5.0,18,0.00,,,0.00,20.000000,,2013-07-27 04:02:00,
2013-07-26 21:12:00,77.0,30.0,-100.00,ENE,58,1.0,5.0,18,0.00,,,0.00,20.000000,,2013-07-27 04:12:00,
2013-07-26 21:22:00,77.0,30.0,-100.00,ENE,58,1.0,5.0,18,0.00,,,0.00,20.000000,,2013-07-27 04:22:00,
2013-07-26 21:31:00,72.0,30.0,-100.00,South,183,5.0,8.0,21,0.00,,,-99.99,1.000000,,2013-07-27 04:31:00,
2013-07-26 22:02:00,72.0,30.0,-100.00,South,183,5.0,8.0,21,0.00,,,-99.99,1.000000,,2013-07-27 05:02:00,
2013-07-26 22:12:00,72.0,30.0,-100.00,South,183,5.0,8.0,21,0.00,,,-99.99,1.000000,,2013-07-27 05:12:00,
2013-07-26 22:22:00,72.0,30.0,-100.00,South,183,5.0,8.0,21,0.00,,,-99.99,1.000000,,2013-07-27 05:22:00,
2013-07-26 22:31:00,70.0,33.0,-100.00,SSW,201,5.0,10.0,25,0.00,,,0.00,0.000000,,2013-07-27 05:31:00,
2013-07-26 23:02:00,70.0,33.0,-100.00,SSW,201,5.0,10.0,25,0.00,,,0.00,0.000000,,2013-07-27 06:02:00,
2013-07-26 23:12:00,70.0,33.0,-100.00,SSW,201,5.0,10.0,25,0.00,,,0.00,0.000000,,2013-07-27 06:12:00,
2013-07-26 23:22:00,70.0,33.0,-100.00,SSW,201,5.0,10.0,25,0.00,,,0.00,0.000000,,2013-07-27 06:22:00,
2013-07-26 23:31:00,66.0,34.0,-100.00,SSW,208,4.0,7.0,30,0.00,,,0.00,0.000000,,2013-07-27 06:31:00,